Time;durP1;ratioP1;P1;durP2;ratioP2;P2;SDS_P1;SDS_P2;PMS_P1;PMS_P2;Temp;Humidity;BMP_temperature;BMP_pressure;BME280_temperature;BME280_humidity;BME280_pressure;Samples;Min_cycle;Max_cycle;Signal;HPM_P1;HPM_P2
2022/01/24 00:01:49;;;;;;;28.73;13.80;;;;;;;;;;5068177;28;20510;-74
2022/01/24 00:04:15;;;;;;;32.47;13.50;;;;;;;;;;5069568;28;20097;-74
2022/01/24 00:06:41;;;;;;;32.37;14.50;;;;;;;;;;5070211;28;20141;-74
2022/01/24 00:09:08;;;;;;;29.73;13.73;;;;;;;;;;5068411;28;20032;-73
2022/01/24 00:12:20;;;;;;;29.53;13.90;;;;;;;;;;5068249;28;20362;-74
2022/01/24 00:17:28;;;;;;;26.13;13.20;;;;;;;;;;5070056;28;20055;-73
2022/01/24 00:28:06;;;;;;;27.33;12.90;;;;;;;;;;5069460;28;20255;-73
2022/01/24 00:30:32;;;;;;;27.80;13.70;;;;;;;;;;5069348;28;20384;-74
2022/01/24 00:32:57;;;;;;;27.93;14.10;;;;;;;;;;5067986;28;20496;-73
2022/01/24 00:35:23;;;;;;;27.07;13.33;;;;;;;;;;5069768;28;20377;-73
2022/01/24 00:37:48;;;;;;;23.30;11.70;;;;;;;;;;5069379;28;20054;-72
2022/01/24 00:40:14;;;;;;;24.27;12.07;;;;;;;;;;5069183;28;20067;-73
2022/01/24 00:42:52;;;;;;;22.77;11.23;;;;;;;;;;5068096;28;20032;-73
2022/01/24 00:45:37;;;;;;;22.70;11.37;;;;;;;;;;5069093;28;20380;-73
2022/01/24 00:55:47;;;;;;;22.50;12.10;;;;;;;;;;5069341;28;20020;-73
2022/01/24 00:58:13;;;;;;;24.63;11.90;;;;;;;;;;5069417;28;20048;-74
2022/01/24 01:00:39;;;;;;;22.57;11.33;;;;;;;;;;5067236;28;20029;-74
2022/01/24 01:03:05;;;;;;;23.27;11.33;;;;;;;;;;5068939;28;20016;-74
2022/01/24 01:08:12;;;;;;;21.13;9.73;;;;;;;;;;5073284;28;20054;-74
2022/01/24 01:18:50;;;;;;;17.97;8.87;;;;;;;;;;5073095;28;20154;-75
2022/01/24 01:21:17;;;;;;;16.83;7.83;;;;;;;;;;5072802;28;20103;-74
2022/01/24 01:23:49;;;;;;;15.87;8.03;;;;;;;;;;5071110;28;20121;-74
2022/01/24 01:26:42;;;;;;;16.73;7.77;;;;;;;;;;5071214;28;20031;-75
2022/01/24 01:29:06;;;;;;;15.70;7.73;;;;;;;;;;5072605;28;20037;-75
2022/01/24 01:58:02;;;;;;;14.03;7.13;;;;;;;;;;5072694;28;20469;-75
2022/01/24 02:00:27;;;;;;;9.50;5.80;;;;;;;;;;5071954;28;20082;-75
2022/01/24 02:02:53;;;;;;;11.60;5.67;;;;;;;;;;5072034;28;20523;-76
2022/01/24 02:05:20;;;;;;;12.87;5.87;;;;;;;;;;5072041;28;20029;-76
2022/01/24 02:07:51;;;;;;;9.67;5.20;;;;;;;;;;5072075;28;20031;-74
2022/01/24 02:10:18;;;;;;;7.33;3.90;;;;;;;;;;5072257;28;20021;-74
2022/01/24 02:12:44;;;;;;;7.77;4.23;;;;;;;;;;5070530;28;20036;-75
2022/01/24 02:15:11;;;;;;;13.13;4.87;;;;;;;;;;5069852;28;21102;-74
2022/01/24 02:23:01;;;;;;;14.40;5.50;;;;;;;;;;5071855;28;20527;-75
2022/01/24 02:25:29;;;;;;;7.47;4.27;;;;;;;;;;5071274;28;20384;-75
2022/01/24 02:28:02;;;;;;;7.77;4.37;;;;;;;;;;5071292;28;20024;-76
2022/01/24 02:33:14;;;;;;;6.07;3.90;;;;;;;;;;5072136;28;20075;-74
2022/01/24 02:35:39;;;;;;;6.57;4.10;;;;;;;;;;5070034;28;20031;-75
2022/01/24 02:38:15;;;;;;;9.37;4.33;;;;;;;;;;5070001;28;20049;-75
2022/01/24 02:40:41;;;;;;;8.00;4.33;;;;;;;;;;5071121;28;20035;-73
2022/01/24 02:48:21;;;;;;;7.53;4.00;;;;;;;;;;5071520;28;20056;-74
2022/01/24 02:48:45;;;;;;;7.30;4.40;;;;;;;;;;5071086;28;20035;-75
2022/01/24 02:53:39;;;;;;;7.37;4.60;;;;;;;;;;5071341;28;20036;-75
2022/01/24 02:56:05;;;;;;;10.27;4.17;;;;;;;;;;5069616;28;20024;-76
2022/01/24 02:58:31;;;;;;;9.27;4.80;;;;;;;;;;5071006;28;20070;-74
2022/01/24 03:00:57;;;;;;;9.93;4.87;;;;;;;;;;5072290;28;20415;-76
2022/01/24 03:03:23;;;;;;;8.07;4.40;;;;;;;;;;5073161;28;20470;-74
2022/01/24 03:05:50;;;;;;;6.27;4.37;;;;;;;;;;5069468;28;20657;-73
2022/01/24 03:08:16;;;;;;;9.43;5.40;;;;;;;;;;5070898;28;20120;-75
2022/01/24 03:10:45;;;;;;;9.93;4.37;;;;;;;;;;5071532;28;20024;-73
2022/01/24 03:15:53;;;;;;;7.87;5.00;;;;;;;;;;5070597;28;20098;-75
2022/01/24 03:18:19;;;;;;;10.13;5.23;;;;;;;;;;5069209;28;20549;-75
2022/01/24 03:20:45;;;;;;;11.10;5.27;;;;;;;;;;5068929;28;20025;-74
2022/01/24 03:23:16;;;;;;;9.30;5.07;;;;;;;;;;5071022;28;20055;-74
2022/01/24 03:25:42;;;;;;;12.80;5.03;;;;;;;;;;5068774;28;20028;-75
2022/01/24 03:28:09;;;;;;;7.43;4.83;;;;;;;;;;5069804;28;20029;-75
2022/01/24 03:30:35;;;;;;;9.20;5.03;;;;;;;;;;5070319;28;20024;-74
2022/01/24 03:33:01;;;;;;;12.70;5.63;;;;;;;;;;5070288;28;20028;-76
2022/01/24 03:35:27;;;;;;;15.13;6.10;;;;;;;;;;5068672;28;20472;-75
2022/01/24 03:37:53;;;;;;;11.10;5.63;;;;;;;;;;5069943;28;20063;-73
2022/01/24 03:40:19;;;;;;;7.93;5.23;;;;;;;;;;5070049;28;20379;-74
2022/01/24 03:42:45;;;;;;;12.47;5.23;;;;;;;;;;5068932;28;20029;-74
2022/01/24 03:45:12;;;;;;;12.13;6.03;;;;;;;;;;5069217;28;20086;-76
2022/01/24 03:50:07;;;;;;;15.77;7.53;;;;;;;;;;5070264;28;20124;-75
2022/01/24 03:52:32;;;;;;;12.37;5.63;;;;;;;;;;5068351;28;20031;-76
2022/01/24 03:54:59;;;;;;;13.53;6.63;;;;;;;;;;5068354;28;20392;-75
2022/01/24 03:57:26;;;;;;;16.77;6.57;;;;;;;;;;5069609;28;20024;-74
2022/01/24 03:59:52;;;;;;;12.53;6.30;;;;;;;;;;5069785;28;20025;-74
2022/01/24 04:02:20;;;;;;;15.70;7.57;;;;;;;;;;5070165;28;20024;-75
2022/01/24 04:04:46;;;;;;;12.83;6.83;;;;;;;;;;5069651;28;20492;-74
2022/01/24 04:07:12;;;;;;;14.63;6.73;;;;;;;;;;5069819;28;20113;-76
2022/01/24 04:09:40;;;;;;;16.80;8.17;;;;;;;;;;5068153;28;20027;-75
2022/01/24 04:12:07;;;;;;;16.00;7.93;;;;;;;;;;5068691;28;20028;-76
2022/01/24 04:22:02;;;;;;;13.43;7.88;;;;;;;;;;5069802;28;20035;-75
2022/01/24 04:24:28;;;;;;;19.63;8.13;;;;;;;;;;5069249;28;20033;-74
2022/01/24 04:26:53;;;;;;;13.80;7.10;;;;;;;;;;5067944;28;20028;-74
2022/01/24 04:29:19;;;;;;;15.73;8.17;;;;;;;;;;5084766;28;20113;-75
2022/01/24 04:31:45;;;;;;;13.47;7.50;;;;;;;;;;5068110;28;20020;-75
2022/01/24 04:34:10;;;;;;;11.30;6.00;;;;;;;;;;5069714;28;20512;-75
2022/01/24 04:36:36;;;;;;;11.10;5.83;;;;;;;;;;5069231;28;20028;-76
2022/01/24 04:39:04;;;;;;;9.07;5.20;;;;;;;;;;5068761;28;20045;-75
2022/01/24 04:41:35;;;;;;;8.00;4.87;;;;;;;;;;5050729;28;20033;-74
2022/01/24 04:44:45;;;;;;;10.50;4.33;;;;;;;;;;5084623;28;20032;-75
2022/01/24 04:55:11;;;;;;;3.97;2.97;;;;;;;;;;5069375;28;20494;-75
2022/01/24 04:57:37;;;;;;;3.87;2.30;;;;;;;;;;5067577;28;20115;-75
2022/01/24 05:00:06;;;;;;;4.27;2.77;;;;;;;;;;5068978;28;20170;-74
2022/01/24 05:02:32;;;;;;;4.53;2.40;;;;;;;;;;5067532;28;20122;-75
2022/01/24 05:04:58;;;;;;;5.80;2.60;;;;;;;;;;5084179;28;20163;-75
2022/01/24 05:07:23;;;;;;;3.80;2.13;;;;;;;;;;5069171;28;20028;-75
2022/01/24 05:10:11;;;;;;;5.73;3.20;;;;;;;;;;5067452;28;20020;-75
2022/01/24 05:23:32;;;;;;;14.50;7.80;;;;;;;;;;5069257;28;20324;-75
2022/01/24 05:26:00;;;;;;;15.83;7.97;;;;;;;;;;5068841;28;20024;-75
2022/01/24 05:28:27;;;;;;;11.10;6.23;;;;;;;;;;5068995;28;20020;-74
2022/01/24 05:30:52;;;;;;;12.60;6.80;;;;;;;;;;5067262;28;20052;-75
2022/01/24 05:33:18;;;;;;;14.13;7.10;;;;;;;;;;5067137;28;20056;-75
2022/01/24 05:35:44;;;;;;;13.20;6.47;;;;;;;;;;5068893;28;20043;-75
2022/01/24 05:38:10;;;;;;;13.53;7.37;;;;;;;;;;5068627;28;20544;-75
2022/01/24 05:40:37;;;;;;;25.87;13.27;;;;;;;;;;5067045;28;20025;-75
2022/01/24 05:43:03;;;;;;;19.10;8.30;;;;;;;;;;5067203;28;20028;-74
2022/01/24 05:45:28;;;;;;;19.67;8.07;;;;;;;;;;5068738;28;20473;-74
2022/01/24 05:47:54;;;;;;;15.23;7.73;;;;;;;;;;5067172;28;20024;-75
2022/01/24 05:50:20;;;;;;;14.30;7.60;;;;;;;;;;5068706;28;20476;-76
2022/01/24 05:52:46;;;;;;;23.43;9.70;;;;;;;;;;5071923;28;20423;-75
2022/01/24 05:55:11;;;;;;;18.93;9.67;;;;;;;;;;5072227;28;20039;-76
2022/01/24 05:57:37;;;;;;;17.83;10.50;;;;;;;;;;5071916;28;20062;-74
2022/01/24 06:00:09;;;;;;;15.80;8.33;;;;;;;;;;5072077;28;20111;-76
2022/01/24 06:02:34;;;;;;;13.50;6.68;;;;;;;;;;5070582;28;20028;-75
2022/01/24 06:05:00;;;;;;;16.43;7.67;;;;;;;;;;5072056;28;20039;-76
2022/01/24 06:07:25;;;;;;;15.93;7.77;;;;;;;;;;5072322;28;20488;-75
2022/01/24 06:09:51;;;;;;;16.53;7.33;;;;;;;;;;5070487;28;20122;-75
2022/01/24 06:12:16;;;;;;;19.03;7.30;;;;;;;;;;5070703;28;20048;-75
2022/01/24 06:14:42;;;;;;;14.13;8.10;;;;;;;;;;5070089;28;20071;-75
2022/01/24 06:17:08;;;;;;;13.37;7.40;;;;;;;;;;5071856;28;20031;-75
2022/01/24 06:19:33;;;;;;;17.97;7.67;;;;;;;;;;5070207;28;20044;-75
2022/01/24 06:21:59;;;;;;;18.87;9.43;;;;;;;;;;5071566;28;20024;-73
2022/01/24 06:24:24;;;;;;;23.37;8.47;;;;;;;;;;5069530;28;20028;-75
2022/01/24 06:26:50;;;;;;;23.70;10.23;;;;;;;;;;5054571;28;20516;-75
2022/01/24 06:29:15;;;;;;;26.87;12.13;;;;;;;;;;5070982;28;20047;-76
2022/01/24 06:31:41;;;;;;;22.73;9.93;;;;;;;;;;5071029;28;20174;-74
2022/01/24 06:34:07;;;;;;;22.90;9.50;;;;;;;;;;5069832;28;20383;-75
2022/01/24 06:36:32;;;;;;;20.83;9.83;;;;;;;;;;5070315;28;20381;-75
2022/01/24 06:39:00;;;;;;;25.13;12.07;;;;;;;;;;5066885;28;20071;-76
2022/01/24 06:41:32;;;;;;;21.43;9.30;;;;;;;;;;5072365;28;20034;-75
2022/01/24 06:43:58;;;;;;;27.58;11.52;;;;;;;;;;5087087;28;20063;-75
2022/01/24 06:46:23;;;;;;;20.30;10.87;;;;;;;;;;5074962;28;20055;-76
2022/01/24 06:48:49;;;;;;;23.00;11.80;;;;;;;;;;5082242;28;20423;-75
2022/01/24 06:51:15;;;;;;;20.97;10.13;;;;;;;;;;5082081;28;20053;-76
2022/01/24 06:53:41;;;;;;;25.70;11.50;;;;;;;;;;5074747;28;20079;-75
2022/01/24 06:56:08;;;;;;;17.20;9.40;;;;;;;;;;5080941;28;20598;-76
2022/01/24 06:58:35;;;;;;;21.00;10.10;;;;;;;;;;5069046;28;20035;-76
2022/01/24 07:01:02;;;;;;;16.50;9.93;;;;;;;;;;5079809;28;20036;-75
2022/01/24 07:03:28;;;;;;;21.97;9.67;;;;;;;;;;5075236;28;20056;-75
2022/01/24 07:05:54;;;;;;;19.43;10.47;;;;;;;;;;5086426;28;20062;-75
2022/01/24 07:08:20;;;;;;;21.10;10.17;;;;;;;;;;5072680;28;20027;-77
2022/01/24 07:10:45;;;;;;;20.53;10.53;;;;;;;;;;5080861;28;20388;-74
2022/01/24 07:13:11;;;;;;;19.70;9.87;;;;;;;;;;5068638;28;20028;-74
2022/01/24 07:15:46;;;;;;;21.20;10.80;;;;;;;;;;5083374;28;20030;-77
2022/01/24 07:18:57;;;;;;;27.90;11.80;;;;;;;;;;5073155;28;20020;-75
2022/01/24 07:21:06;;;;;;;15.87;8.23;;;;;;;;;;5089844;28;20028;-75
2022/01/24 07:23:32;;;;;;;16.53;8.57;;;;;;;;;;5074633;28;20059;-75
2022/01/24 07:25:58;;;;;;;16.13;8.20;;;;;;;;;;5078286;28;20432;-74
2022/01/24 07:28:24;;;;;;;9.87;5.53;;;;;;;;;;5084478;28;20020;-76
2022/01/24 07:30:49;;;;;;;9.67;4.83;;;;;;;;;;5077088;28;20036;-75
2022/01/24 07:33:15;;;;;;;9.80;4.77;;;;;;;;;;5077855;28;20133;-76
2022/01/24 07:35:43;;;;;;;6.67;3.97;;;;;;;;;;5085662;28;20540;-74
2022/01/24 07:38:08;;;;;;;7.60;4.67;;;;;;;;;;5071595;28;20044;-75
2022/01/24 07:40:38;;;;;;;8.87;4.70;;;;;;;;;;5082989;28;20032;-75
2022/01/24 07:43:12;;;;;;;6.80;4.83;;;;;;;;;;5079536;28;20411;-76
2022/01/24 07:45:40;;;;;;;6.37;4.17;;;;;;;;;;5063258;28;20525;-75
2022/01/24 07:48:06;;;;;;;9.50;5.17;;;;;;;;;;5066779;28;20039;-74
2022/01/24 07:50:32;;;;;;;8.67;4.87;;;;;;;;;;5065052;28;20369;-74
2022/01/24 07:53:01;;;;;;;10.03;4.70;;;;;;;;;;5067453;28;20024;-74
2022/01/24 07:55:26;;;;;;;10.27;4.87;;;;;;;;;;5065490;28;20511;-77
2022/01/24 07:57:52;;;;;;;9.77;4.93;;;;;;;;;;5066914;28;20150;-74
2022/01/24 08:00:19;;;;;;;10.43;6.03;;;;;;;;;;5066740;28;20046;-76
2022/01/24 08:02:44;;;;;;;10.80;5.73;;;;;;;;;;5068400;28;20036;-76
2022/01/24 08:05:10;;;;;;;11.30;5.70;;;;;;;;;;5063450;28;20048;-75
2022/01/24 08:07:37;;;;;;;7.23;4.50;;;;;;;;;;5066869;28;20486;-75
2022/01/24 08:10:05;;;;;;;15.47;7.47;;;;;;;;;;5066557;28;20452;-75
2022/01/24 08:12:31;;;;;;;9.00;4.53;;;;;;;;;;5065981;28;20115;-75
2022/01/24 08:14:59;;;;;;;8.27;4.93;;;;;;;;;;5062241;28;20067;-73
2022/01/24 08:17:25;;;;;;;8.07;3.90;;;;;;;;;;5061549;28;20039;-76
2022/01/24 08:19:50;;;;;;;7.90;3.87;;;;;;;;;;5061540;28;20036;-74
2022/01/24 08:22:16;;;;;;;11.73;4.80;;;;;;;;;;5062453;28;20384;-76
2022/01/24 08:24:41;;;;;;;13.17;4.30;;;;;;;;;;5059841;28;20028;-75
2022/01/24 08:27:07;;;;;;;6.70;4.33;;;;;;;;;;5062661;28;20524;-75
2022/01/24 08:29:33;;;;;;;8.73;4.20;;;;;;;;;;5060688;28;20028;-74
2022/01/24 08:31:58;;;;;;;7.07;4.67;;;;;;;;;;5065870;28;20040;-73
2022/01/24 08:34:24;;;;;;;9.17;4.93;;;;;;;;;;5068901;28;20139;-75
2022/01/24 08:36:49;;;;;;;10.10;4.90;;;;;;;;;;5068079;28;20037;-75
2022/01/24 08:39:15;;;;;;;7.60;4.80;;;;;;;;;;5057602;28;20577;-76
2022/01/24 08:46:55;;;;;;;10.07;5.27;;;;;;;;;;5058648;28;20077;-76
2022/01/24 08:49:21;;;;;;;14.13;6.63;;;;;;;;;;5060974;28;20414;-73
2022/01/24 08:51:47;;;;;;;11.90;6.20;;;;;;;;;;5060515;28;20029;-77
2022/01/24 08:54:13;;;;;;;13.07;6.80;;;;;;;;;;5061502;28;20032;-75
2022/01/24 08:56:39;;;;;;;20.37;10.60;;;;;;;;;;5061169;28;20032;-75
2022/01/24 08:59:06;;;;;;;15.83;7.87;;;;;;;;;;5061034;28;20044;-73
2022/01/24 09:01:32;;;;;;;13.00;7.57;;;;;;;;;;5045501;28;20127;-73
2022/01/24 09:03:57;;;;;;;18.00;8.73;;;;;;;;;;5062104;28;20783;-75
2022/01/24 09:06:23;;;;;;;17.07;8.97;;;;;;;;;;5063280;28;20115;-76
2022/01/24 09:08:55;;;;;;;14.47;8.00;;;;;;;;;;5062462;28;20040;-78
2022/01/24 09:11:30;;;;;;;22.23;8.37;;;;;;;;;;5063664;28;20029;-76
2022/01/24 09:13:57;;;;;;;17.03;7.83;;;;;;;;;;5059509;28;20032;-77
2022/01/24 09:16:23;;;;;;;16.40;8.30;;;;;;;;;;5058065;28;20149;-76
2022/01/24 09:18:49;;;;;;;12.37;7.27;;;;;;;;;;5058775;28;20078;-75
2022/01/24 09:21:15;;;;;;;15.77;7.87;;;;;;;;;;5059430;28;20128;-76
2022/01/24 09:23:41;;;;;;;14.43;6.93;;;;;;;;;;5059793;28;20040;-73
2022/01/24 09:26:07;;;;;;;11.27;6.17;;;;;;;;;;5065972;28;20052;-74
2022/01/24 09:28:32;;;;;;;19.30;8.73;;;;;;;;;;5080316;28;20099;-76
2022/01/24 09:30:58;;;;;;;14.93;6.77;;;;;;;;;;5065803;28;20123;-75
2022/01/24 09:33:25;;;;;;;10.57;6.47;;;;;;;;;;5069856;28;20048;-74
2022/01/24 09:35:55;;;;;;;11.40;5.77;;;;;;;;;;5060687;28;20364;-75
2022/01/24 09:38:21;;;;;;;11.33;5.70;;;;;;;;;;5064698;28;20060;-74
2022/01/24 09:40:47;;;;;;;12.73;4.87;;;;;;;;;;5064292;28;20479;-74
2022/01/24 09:43:14;;;;;;;8.77;5.37;;;;;;;;;;5063483;28;20032;-78
2022/01/24 09:45:40;;;;;;;8.80;4.17;;;;;;;;;;5060707;28;20082;-75
2022/01/24 09:48:05;;;;;;;12.40;5.30;;;;;;;;;;5065060;28;20075;-74
2022/01/24 09:50:31;;;;;;;7.13;4.20;;;;;;;;;;5064724;28;20033;-76
2022/01/24 09:52:57;;;;;;;13.23;6.33;;;;;;;;;;5063570;28;20075;-76
2022/01/24 09:55:24;;;;;;;8.03;4.43;;;;;;;;;;5061445;28;20146;-76
2022/01/24 09:57:51;;;;;;;7.23;4.27;;;;;;;;;;5065200;28;20074;-74
2022/01/24 10:00:21;;;;;;;8.80;3.93;;;;;;;;;;5068089;28;20028;-73
2022/01/24 10:02:49;;;;;;;10.87;4.80;;;;;;;;;;5066842;28;20460;-75
2022/01/24 10:05:26;;;;;;;8.60;4.87;;;;;;;;;;5063641;28;20065;-76
2022/01/24 10:08:00;;;;;;;8.77;4.50;;;;;;;;;;5063922;28;20032;-75
2022/01/24 10:10:32;;;;;;;7.53;4.20;;;;;;;;;;5063362;28;20059;-77
2022/01/24 10:16:29;;;;;;;7.35;4.45;;;;;;;;;;5062631;28;20098;-75
2022/01/24 10:19:02;;;;;;;10.10;5.37;;;;;;;;;;5064794;28;20155;-75
2022/01/24 10:21:28;;;;;;;8.17;4.60;;;;;;;;;;5064782;28;20025;-75
2022/01/24 10:23:55;;;;;;;9.27;4.97;;;;;;;;;;5062337;28;20043;-74
2022/01/24 10:26:24;;;;;;;10.03;4.43;;;;;;;;;;5075584;28;20098;-75
2022/01/24 10:28:50;;;;;;;8.57;4.67;;;;;;;;;;5063986;28;20040;-76
2022/01/24 10:31:24;;;;;;;6.70;4.83;;;;;;;;;;5066186;28;20031;-77
2022/01/24 10:33:51;;;;;;;7.53;4.93;;;;;;;;;;5064039;28;20624;-77
2022/01/24 10:36:46;;;;;;;12.67;6.93;;;;;;;;;;5065181;28;20061;-73
2022/01/24 10:39:22;;;;;;;8.70;4.73;;;;;;;;;;5054450;28;20071;-75
2022/01/24 10:42:26;;;;;;;10.10;5.03;;;;;;;;;;5060863;28;20127;-75
2022/01/24 10:44:53;;;;;;;13.03;6.37;;;;;;;;;;5059760;28;20075;-76
2022/01/24 10:47:29;;;;;;;7.70;4.60;;;;;;;;;;5064804;28;20086;-75
2022/01/24 10:49:55;;;;;;;8.60;5.00;;;;;;;;;;5063638;28;20044;-74
2022/01/24 10:52:24;;;;;;;6.00;4.23;;;;;;;;;;5065370;28;20524;-75
2022/01/24 10:54:53;;;;;;;7.90;4.60;;;;;;;;;;5062526;28;20066;-74
2022/01/24 10:57:28;;;;;;;9.17;5.30;;;;;;;;;;5062353;28;20066;-75
2022/01/24 11:00:23;;;;;;;10.20;5.00;;;;;;;;;;5061090;28;20040;-76
2022/01/24 11:02:51;;;;;;;8.80;3.97;;;;;;;;;;5061429;28;20496;-75
2022/01/24 11:05:22;;;;;;;9.53;4.17;;;;;;;;;;5062853;28;20481;-75
2022/01/24 11:07:54;;;;;;;11.90;3.45;;;;;;;;;;5061996;28;20033;-75
2022/01/24 11:10:22;;;;;;;7.32;4.70;;;;;;;;;;5062373;28;20537;-74
2022/01/24 11:12:47;;;;;;;14.30;5.40;;;;;;;;;;5061131;28;20075;-74
2022/01/24 11:15:13;;;;;;;7.50;3.80;;;;;;;;;;5058687;28;20459;-75
2022/01/24 11:17:40;;;;;;;23.13;5.43;;;;;;;;;;5063114;28;20054;-77
2022/01/24 11:20:08;;;;;;;9.60;5.13;;;;;;;;;;5060147;28;20028;-73
2022/01/24 11:22:40;;;;;;;9.07;4.90;;;;;;;;;;5062295;28;20024;-75
2022/01/24 11:25:08;;;;;;;9.43;4.15;;;;;;;;;;5060739;28;20029;-73
2022/01/24 11:27:36;;;;;;;8.10;3.27;;;;;;;;;;5064644;28;20124;-76
2022/01/24 11:30:08;;;;;;;5.97;2.93;;;;;;;;;;5062611;28;20047;-76
2022/01/24 11:32:40;;;;;;;14.63;4.33;;;;;;;;;;5064302;28;20028;-76
2022/01/24 11:35:07;;;;;;;;;;;;;;;;;;5057535;28;20059;-74
2022/01/24 11:37:45;;;;;;;11.93;4.30;;;;;;;;;;5062804;28;19942;-77
2022/01/24 11:40:19;;;;;;;20.90;7.47;;;;;;;;;;5063556;28;20063;-76
2022/01/24 11:42:47;;;;;;;10.17;4.60;;;;;;;;;;5067481;28;20203;-78
2022/01/24 11:45:17;;;;;;;9.03;3.90;;;;;;;;;;5060035;28;20035;-74
2022/01/24 11:47:46;;;;;;;30.33;5.43;;;;;;;;;;5058942;28;20141;-76
2022/01/24 11:50:24;;;;;;;8.33;5.20;;;;;;;;;;5061273;28;20028;-76
2022/01/24 11:52:51;;;;;;;20.17;5.47;;;;;;;;;;5062308;28;20020;-75
2022/01/24 11:55:31;;;;;;;13.37;5.93;;;;;;;;;;5061411;28;20016;-76
2022/01/24 11:58:05;;;;;;;19.57;5.87;;;;;;;;;;5061252;28;20043;-75
2022/01/24 12:00:38;;;;;;;27.33;7.27;;;;;;;;;;5061011;28;20061;-75
2022/01/24 12:03:26;;;;;;;27.90;6.10;;;;;;;;;;5057761;28;20032;-75
2022/01/24 12:05:54;;;;;;;20.43;6.10;;;;;;;;;;5060239;28;20335;-76
2022/01/24 12:08:42;;;;;;;21.73;5.83;;;;;;;;;;5065196;28;20916;-76
2022/01/24 12:11:24;;;;;;;11.20;5.33;;;;;;;;;;5059218;28;20530;-74
2022/01/24 12:14:01;;;;;;;15.57;6.23;;;;;;;;;;5056558;28;21226;-74
2022/01/24 12:16:39;;;;;;;13.97;5.77;;;;;;;;;;5050779;28;20155;-76
2022/01/24 12:19:05;;;;;;;12.47;5.37;;;;;;;;;;5062391;28;20063;-74
2022/01/24 12:21:33;;;;;;;10.47;4.27;;;;;;;;;;5057736;28;20341;-74
2022/01/24 12:24:02;;;;;;;15.73;8.17;;;;;;;;;;5059511;28;20036;-74
2022/01/24 12:26:44;;;;;;;19.70;5.50;;;;;;;;;;5056410;28;20032;-75
2022/01/24 12:29:14;;;;;;;10.77;5.33;;;;;;;;;;5058493;28;20036;-75
2022/01/24 12:31:52;;;;;;;10.67;5.43;;;;;;;;;;5055813;28;20028;-75
2022/01/24 12:34:23;;;;;;;10.47;5.77;;;;;;;;;;5054955;28;20051;-76
2022/01/24 12:37:15;;;;;;;18.73;6.72;;;;;;;;;;5060134;28;20867;-74
2022/01/24 12:40:06;;;;;;;9.05;5.07;;;;;;;;;;5064700;28;20053;-75
2022/01/24 12:42:58;;;;;;;14.57;6.00;;;;;;;;;;5064194;28;20032;-75
2022/01/24 12:48:18;;;;;;;10.97;5.30;;;;;;;;;;5064803;28;20479;-76
2022/01/24 12:50:51;;;;;;;10.87;4.90;;;;;;;;;;5060998;28;20024;-76
2022/01/24 12:53:17;;;;;;;7.57;4.70;;;;;;;;;;5065029;28;20507;-76
2022/01/24 12:55:44;;;;;;;9.57;5.17;;;;;;;;;;5065505;28;20055;-77
2022/01/24 12:58:10;;;;;;;17.87;5.33;;;;;;;;;;5065076;28;20035;-75
2022/01/24 13:00:39;;;;;;;10.73;4.60;;;;;;;;;;5068074;28;20029;-74
2022/01/24 13:03:05;;;;;;;12.57;5.30;;;;;;;;;;5067328;28;20044;-74
2022/01/24 13:05:37;;;;;;;16.77;8.33;;;;;;;;;;5064396;28;20036;-75
2022/01/24 13:08:02;;;;;;;9.02;5.10;;;;;;;;;;5066527;28;20068;-75
2022/01/24 13:10:30;;;;;;;14.63;6.03;;;;;;;;;;5064931;28;20468;-74
2022/01/24 13:13:08;;;;;;;16.33;5.77;;;;;;;;;;5067421;28;20067;-75
2022/01/24 13:21:09;;;;;;;43.93;21.00;;;;;;;;;;5065415;28;20040;-75
2022/01/24 13:23:39;;;;;;;16.10;7.77;;;;;;;;;;5064130;28;20055;-76
2022/01/24 13:26:06;;;;;;;26.97;8.97;;;;;;;;;;5063077;28;20029;-74
2022/01/24 13:28:32;;;;;;;20.13;7.00;;;;;;;;;;5063452;28;20036;-76
2022/01/24 13:31:01;;;;;;;13.80;6.50;;;;;;;;;;5061291;28;20160;-76
2022/01/24 13:33:29;;;;;;;15.93;6.43;;;;;;;;;;5065979;28;20112;-77
2022/01/24 13:36:08;;;;;;;6.67;3.63;;;;;;;;;;5061653;28;20040;-76
2022/01/24 13:38:42;;;;;;;8.10;3.30;;;;;;;;;;5066002;28;20060;-75
2022/01/24 13:41:14;;;;;;;7.60;4.03;;;;;;;;;;5078559;28;20059;-75
2022/01/24 13:43:47;;;;;;;6.20;3.38;;;;;;;;;;5065415;28;20060;-77
2022/01/24 13:46:15;;;;;;;9.13;4.40;;;;;;;;;;5066502;28;20062;-75
2022/01/24 13:48:45;;;;;;;7.10;3.53;;;;;;;;;;5066440;28;20032;-77
2022/01/24 13:51:15;;;;;;;10.93;4.17;;;;;;;;;;5065545;28;20024;-77
2022/01/24 13:53:56;;;;;;;7.20;4.33;;;;;;;;;;5067200;28;20037;-75
2022/01/24 13:56:36;;;;;;;13.53;6.20;;;;;;;;;;5061673;28;20044;-74
2022/01/24 13:59:04;;;;;;;9.57;4.60;;;;;;;;;;5064805;28;20028;-76
2022/01/24 14:01:31;;;;;;;10.63;4.63;;;;;;;;;;5065150;28;20029;-78
2022/01/24 14:04:06;;;;;;;8.63;4.70;;;;;;;;;;5065983;28;20400;-74
2022/01/24 14:06:37;;;;;;;5.07;3.60;;;;;;;;;;5063425;28;20032;-76
2022/01/24 14:09:12;;;;;;;7.10;4.10;;;;;;;;;;5063620;28;20032;-78
2022/01/24 14:11:46;;;;;;;5.23;3.53;;;;;;;;;;5063864;28;20024;-73
2022/01/24 14:14:16;;;;;;;8.03;4.50;;;;;;;;;;5061551;28;20127;-74
2022/01/24 14:19:11;;;;;;;9.13;4.43;;;;;;;;;;5065882;28;20125;-74
2022/01/24 14:21:37;;;;;;;9.27;4.40;;;;;;;;;;5063907;28;20179;-75
2022/01/24 14:24:03;;;;;;;7.50;4.13;;;;;;;;;;5064110;28;20396;-73
2022/01/24 14:26:31;;;;;;;5.70;3.87;;;;;;;;;;5065246;28;20112;-78
2022/01/24 14:29:07;;;;;;;10.13;3.83;;;;;;;;;;5063917;28;20043;-74
2022/01/24 14:31:33;;;;;;;5.13;4.10;;;;;;;;;;5072013;28;20020;-75
2022/01/24 14:34:00;;;;;;;10.53;5.23;;;;;;;;;;5060531;28;20028;-76
2022/01/24 14:36:28;;;;;;;7.13;4.20;;;;;;;;;;5060313;28;20298;-76
2022/01/24 14:39:06;;;;;;;6.67;3.83;;;;;;;;;;5062674;28;20909;-75
2022/01/24 14:41:47;;;;;;;13.30;4.53;;;;;;;;;;5064158;28;20031;-76
2022/01/24 14:47:00;;;;;;;5.70;3.93;;;;;;;;;;5064617;28;20570;-77
2022/01/24 14:49:38;;;;;;;8.80;4.97;;;;;;;;;;5064619;28;20087;-73
2022/01/24 14:52:06;;;;;;;10.70;4.80;;;;;;;;;;5062459;28;20129;-74
2022/01/24 14:54:35;;;;;;;9.73;4.90;;;;;;;;;;5058767;28;20052;-75
2022/01/24 14:57:03;;;;;;;4.23;3.80;;;;;;;;;;5064089;28;20035;-75
2022/01/24 14:59:32;;;;;;;13.77;5.30;;;;;;;;;;5045874;28;20036;-75
2022/01/24 15:01:58;;;;;;;9.77;4.60;;;;;;;;;;5064120;28;20401;-75
2022/01/24 15:04:24;;;;;;;5.90;4.17;;;;;;;;;;5060540;28;20150;-74
2022/01/24 15:06:53;;;;;;;11.23;3.83;;;;;;;;;;5065002;28;20489;-76
2022/01/24 15:09:23;;;;;;;8.20;4.10;;;;;;;;;;5064060;28;20484;-76
2022/01/24 15:11:51;;;;;;;15.17;5.33;;;;;;;;;;5061749;28;20033;-77
2022/01/24 15:23:57;;;;;;;8.30;2.33;;;;;;;;;;5063197;28;20025;-77
2022/01/24 15:27:46;;;;;;;4.60;3.77;;;;;;;;;;5070235;28;20039;-77
2022/01/24 15:30:15;;;;;;;4.43;2.17;;;;;;;;;;5069905;28;20523;-77
2022/01/24 15:32:41;;;;;;;16.03;6.83;;;;;;;;;;5068344;28;20044;-76
2022/01/24 15:35:07;;;;;;;6.37;3.47;;;;;;;;;;5070133;28;20032;-78
2022/01/24 15:37:33;;;;;;;11.37;4.57;;;;;;;;;;5059768;28;20126;-76
2022/01/24 15:39:58;;;;;;;7.90;3.60;;;;;;;;;;5050113;28;20458;-76
2022/01/24 15:45:24;;;;;;;6.53;3.30;;;;;;;;;;5061687;28;20024;-76
2022/01/24 15:47:47;;;;;;;24.30;11.33;;;;;;;;;;5069606;28;20321;-77
2022/01/24 15:50:18;;;;;;;6.57;4.47;;;;;;;;;;5067854;28;20028;-76
2022/01/24 15:52:43;;;;;;;6.43;3.70;;;;;;;;;;5047389;28;20025;-78
2022/01/24 15:55:13;;;;;;;4.87;3.33;;;;;;;;;;5047730;28;20464;-76
2022/01/24 15:57:40;;;;;;;8.63;3.63;;;;;;;;;;5064854;28;20029;-77
2022/01/24 16:00:08;;;;;;;7.43;3.87;;;;;;;;;;5056355;28;20077;-77
2022/01/24 16:02:34;;;;;;;8.43;4.13;;;;;;;;;;5082224;28;20066;-77
2022/01/24 16:04:59;;;;;;;8.23;4.03;;;;;;;;;;5067549;28;20444;-76
2022/01/24 16:07:26;;;;;;;7.93;4.80;;;;;;;;;;5068801;28;20032;-76
2022/01/24 16:09:51;;;;;;;6.60;4.17;;;;;;;;;;5066707;28;20290;-77
2022/01/24 16:12:17;;;;;;;12.13;4.20;;;;;;;;;;5066184;28;20113;-75
2022/01/24 16:14:43;;;;;;;8.03;4.23;;;;;;;;;;5067420;28;20415;-79
2022/01/24 16:17:08;;;;;;;8.43;4.97;;;;;;;;;;5068889;28;20024;-76
2022/01/24 16:19:37;;;;;;;14.63;7.13;;;;;;;;;;5070234;28;20031;-76
2022/01/24 16:22:59;;;;;;;7.43;4.33;;;;;;;;;;5068942;28;20475;-75
2022/01/24 16:27:37;;;;;;;16.10;7.70;;;;;;;;;;5085668;28;20082;-76
2022/01/24 16:30:03;;;;;;;7.03;4.30;;;;;;;;;;5086307;28;20566;-76
2022/01/24 16:32:29;;;;;;;7.20;4.80;;;;;;;;;;5067779;28;20496;-77
2022/01/24 16:34:58;;;;;;;8.63;4.90;;;;;;;;;;5065260;28;20024;-76
2022/01/24 16:37:25;;;;;;;11.57;5.07;;;;;;;;;;5066980;28;20057;-75
2022/01/24 16:39:52;;;;;;;13.40;6.00;;;;;;;;;;5065617;28;20028;-77
2022/01/24 16:42:17;;;;;;;17.77;10.90;;;;;;;;;;5065544;28;20017;-75
2022/01/24 16:45:13;;;;;;;10.70;5.10;;;;;;;;;;5065479;28;20031;-76
2022/01/24 16:47:38;;;;;;;10.10;5.20;;;;;;;;;;5068053;28;20111;-77
2022/01/24 16:50:05;;;;;;;12.63;5.60;;;;;;;;;;5069448;28;20136;-76
2022/01/24 16:52:32;;;;;;;8.20;5.03;;;;;;;;;;5068540;28;20024;-76
2022/01/24 16:54:57;;;;;;;7.97;4.93;;;;;;;;;;5066227;28;20119;-76
2022/01/24 16:57:23;;;;;;;9.07;5.70;;;;;;;;;;5066547;28;20194;-76
2022/01/24 16:59:49;;;;;;;14.13;5.60;;;;;;;;;;5066994;28;20538;-75
2022/01/24 17:02:16;;;;;;;15.90;6.10;;;;;;;;;;5066633;28;20032;-79
2022/01/24 17:04:41;;;;;;;13.97;6.60;;;;;;;;;;5066804;28;20391;-77